Impacts TAF Board
For situational awareness. Not to be used for flight planning purposes.
IDs:

KDFW - Dallas-Ft Worth Intl, TX, US

Issued at 2058 UTC 19 Jan 2019
Updated at 2312 UTC 19 Jan 2019
Potential Impact None Slight Moderate High
Time<<20/12Z 20/13Z 20/14Z 20/15Z 20/16Z 20/17Z 20/18Z 20/19Z 20/20Z 20/21Z 20/22Z 20/23Z 21/00Z>>
Type PRVL PRVL PRVL PRVL PRVL PRVL PRVL PRVL PRVL PRVL PRVL PRVL
VIS >6 >6 >6 >6 >6 >6 >6 >6 >6 >6 >6 >6
CIG -- -- -- -- -- -- -- -- -- -- -- --
Cover FEW FEW FEW FEW FEW FEW FEW FEW FEW FEW FEW FEW
FltCat VFR VFR VFR VFR VFR VFR VFR VFR VFR VFR VFR VFR
WX -- -- -- -- -- -- -- -- -- -- -- --
WDir 350 350 350 350 350 350 350 350 180 180 180 180
WSpd 12 12 12 12 12 12 12 12 5 5 5 5
WGst -- -- -- -- -- -- -- -- -- -- -- --
Raw TAF
KDFW 192058Z 1921/2024 33025G35KT P6SM SCT030
  TEMPO 1921/1923 BKN030
  FM200000 34015G25KT P6SM SKC
  FM200600 35012KT P6SM FEW250
  FM202000 18005KT P6SM FEW250


METAR Board
Radar Display
Forecast Discussion
For situational awareness. Not to be used for flight planning purposes.